Brittany, Louisiana
Current Conditions -  °F | °C
As of 3:55 AM on Friday 19 Dec 2014 (Local Time) from KL38 Reporting Station
Light Rain Light Rain  
Wind Chill: 56°   Ceiling: 1500
Heat Index: 56°   Visibility: 7mi
Dew Point: 56°   Wind: 0mph
Humidity: 100%   Direction: NA
Pressure: 30.05"   Gusts: NA
Location:  30.21°N, 90.88°W
Report Text: KL38 190955Z AUTO 00000KT 7SM -RA OVC015 13/13 A3005 RMK AO2 LTG DSNT N AND NW P0014 T01310131
Loading
Personal Weather Stations






























Interactive Weather Map New forecast layout! Learn more

10-Day Weather Forecast

Advertisements
Track Severe Weather on mobile